Metar Report
Metar
METAR KMWO 201256Z AUTO 00000KT 1/4SM FG OVC002 20/18 A3005 A02 6288
METAR KMWO 201156Z AUTO 00000KT M1/4SM FG OVC002 18/16 A3005 A02 6287
METAR KMWO 201056Z AUTO 00000KT M1/4SM FG OVC002 17/15 A3002 A02 6286
METAR KMWO 200956Z AUTO 00000KT 1/2SM FG OVC002 16/14 A2999 A02 6285
METAR KMWO 200856Z AUTO 00000KT 1/4SM FG VV002 17/14 A2999 A02 6284
METAR KMWO 200756Z AUTO 00000KT 2 1/2SM BR SCT080 17/15 A2998 A02 6283
METAR KMWO 200656Z AUTO 00000KT 1/2SM FG VV005 17/15 A2998 A02 6282
METAR KMWO 200556Z AUTO 00000KT 5SM BR CLR 17/15 A2998 A02 6281
METAR KMWO 200456Z AUTO 00000KT 5SM BR CLR 19/17 A2998 A02 6280
METAR KMWO 200356Z AUTO 00000KT 10SM CLR 18/16 A2998 A02 6279
METAR KMWO 200256Z AUTO 00000KT 5SM BR CLR 18/16 A2998 A02 6278
METAR KMWO 200156Z AUTO 00000KT 10SM SCT100 19/17 A2997 A02 6277
METAR KMWO 200056Z AUTO 00000KT 10SM CLR 21/18 A2996 A02 6276
METAR KMWO 192356Z AUTO 00000KT 10SM SCT100 22/19 A2995 A02 6275
METAR KMWO 192256Z AUTO 00000KT 10SM BKN120 25/19 A2995 A02 6274
METAR KMWO 192156Z AUTO 00000KT 10SM SCT120 25/19 A2995 A02 6273
METAR KMWO 192056Z AUTO 23005KT 10SM CLR 25/19 A2995 A02 6272
METAR KMWO 191956Z AUTO 00000KT 10SM SCT065 BKN110 25/20 A2995 A02 6271
METAR KMWO 191856Z AUTO 22003KT 10SM SCT014 SCT090 SCT110 24/20 A2998 A02 6270
METAR KMWO 191756Z AUTO 16003KT 7SM -RA SCT009 BKN048 OVC065 24/21 A2999 A02 6269
METAR KMWO 191656Z AUTO 25006KT 7SM -RA SCT007 BKN023 OVC047 24/21 A3001 A02 6268
METAR KMWO 191556Z AUTO 00000KT 5SM -RA SCT037 BKN060 OVC075 23/21 A3003 A02 6267
METAR KMWO 191456Z AUTO 22007KT 10SM SCT032 SCT050 BKN055 24/20 A3002 A02 6266
METAR KMWO 191356Z AUTO 00000KT 10SM SCT018 SCT065 BKN120 23/21 A3001 A02 6265
METAR KMWO 191256Z AUTO 00000KT 4SM BR BKN100 BKN120 21/19 A3000 A02 6264
METAR KMWO 191156Z AUTO 00000KT 5SM BR CLR 21/19 A2998 A02 6263
METAR KMWO 191056Z AUTO 00000KT 2 1/2SM BR CLR 21/19 A2998 A02 6262
METAR KMWO 190956Z AUTO 00000KT 2SM BR OVC110 21/19 A2998 A02 6261
METAR KMWO 190856Z AUTO 00000KT 3SM BR BKN075 OVC090 21/19 A2999 A02 6260
METAR KMWO 190756Z AUTO 00000KT 3/4SM BR VV005 21/19 A2998 A02 6259
METAR KMWO 190656Z AUTO 00000KT 4SM BR SCT120 21/19 A3000 A02 6258
METAR KMWO 190556Z AUTO 00000KT 3SM BR SCT090 BKN120 21/19 A3000 A02 6257
METAR KMWO 190456Z AUTO 00000KT 1 3/4SM BR VV007 21/19 A3001 A02 6256
METAR KMWO 190356Z AUTO 00000KT 1 1/4SM BR SCT080 21/19 A3002 A02 6255
METAR KMWO 190256Z AUTO 00000KT 1/2SM HZ OVC080 21/18 A3003 A02 6254
METAR KMWO 190156Z AUTO 00000KT 3SM BR SCT080 21/19 A3004 A02 6253
METAR KMWO 190056Z AUTO 07003KT 7SM SCT038 SCT045 SCT070 24/21 A3003 A02 6252
METAR KMWO 182356Z AUTO 00000KT 10SM SCT044 BKN070 BKN080 24/21 A3003 A02 6251
METAR KMWO 182256Z AUTO 07003KT 10SM SCT055 SCT080 24/20 A3002 A02 6250
METAR KMWO 182156Z AUTO 05005KT 10SM SCT060 SCT085 BKN110 25/19 A3003 A02 6249
METAR KMWO 182056Z AUTO 14006KT 10SM BKN037 BKN045 OVC055 27/18 A3002 A02 6248
METAR KMWO 181956Z AUTO 00000KT 10SM SCT040 SCT046 BKN070 28/17 A3003 A02 6247
METAR KMWO 181856Z AUTO 24004KT 10SM BKN090 28/18 A3005 A02 6246
METAR KMWO 181756Z AUTO 19004KT 10SM SCT090 28/19 A3007 A02 6245
METAR KMWO 181656Z AUTO 00000KT 10SM CLR 27/19 A3009 A02 6244
METAR KMWO 181556Z AUTO 00000KT 10SM OVC100 24/19 A3011 A02 6243
METAR KMWO 181456Z AUTO 00000KT 10SM SCT080 BKN100 24/19 A3011 A02 6242
METAR KMWO 181356Z AUTO 00000KT 10SM BKN100 21/18 A3011 A02 6241
METAR KMWO 181256Z AUTO 00000KT 7SM SCT100 21/18 A3011 A02 6240
METAR KMWO 181156Z AUTO 00000KT 7SM BR BKN110 18/16 A3009 A02 6239
METAR KMWO 181056Z AUTO 00000KT 5SM BR SCT080 SCT110 18/16 A3008 A02 6238
METAR KMWO 180956Z AUTO 00000KT 5SM BR SCT049 OVC060 19/17 A3008 A02 6237
METAR KMWO 180856Z AUTO 06003KT 5SM HZ BKN049 BKN060 OVC090 21/18 A3008 A02 6236
METAR KMWO 180756Z AUTO 00000KT 5SM BR SCT080 19/17 A3008 A02 6235
METAR KMWO 180656Z AUTO 00000KT 5SM BR SCT050 SCT060 18/16 A3008 A02 6234
METAR KMWO 180556Z AUTO 00000KT 5SM BR SCT070 SCT080 19/17 A3009 A02 6233
METAR KMWO 180456Z AUTO 00000KT 7SM BKN070 OVC080 19/17 A3010 A02 6232
METAR KMWO 180356Z AUTO 00000KT 5SM HZ CLR 19/17 A3011 A02 6231
METAR KMWO 180256Z AUTO 00000KT 7SM CLR 20/17 A3011 A02 6230
METAR KMWO 180156Z AUTO 00000KT 10SM CLR 21/18 A3011 A02 6229
METAR KMWO 180056Z AUTO 00000KT 7SM CLR 21/17 A3010 A02 6228
METAR KMWO 172356Z AUTO 00000KT 10SM CLR 24/19 A3008 A02 6227
METAR KMWO 172256Z AUTO 00000KT 10SM CLR 28/15 A3008 A02 6226
METAR KMWO 172156Z AUTO 00000KT 10SM CLR 29/13 A3008 A02 6225
METAR KMWO 172056Z AUTO 27004KT 10SM SCT060 29/14 A3008 A02 6224
METAR KMWO 171956Z AUTO 00000KT 10SM CLR 28/16 A3010 A02 6223
METAR KMWO 171856Z AUTO 24005KT 10SM SCT045 BKN060 29/17 A3011 A02 6222
METAR KMWO 171756Z AUTO 28003KT 10SM CLR 28/17 A3013 A02 6221
METAR KMWO 171656Z AUTO 00000KT 10SM CLR 27/18 A3015 A02 6220
METAR KMWO 171556Z AUTO 00000KT 10SM CLR 26/19 A3017 A02 6219
METAR KMWO 171456Z AUTO 00000KT 10SM CLR 24/19 A3017 A02 6218
METAR KMWO 171356Z AUTO 00000KT 10SM CLR 21/18 A3019 A02 6217
METAR KMWO 171256Z AUTO 00000KT 10SM CLR 17/14 A3018 A02 6216
METAR KMWO 171156Z AUTO 00000KT 7SM CLR 14/12 A3017 A02 6215
METAR KMWO 171056Z AUTO 00000KT 4SM BR CLR 14/12 A3016 A02 6214
METAR KMWO 170956Z AUTO 00000KT 4SM BR CLR 16/13 A3014 A02 6213
METAR KMWO 170856Z AUTO 00000KT 7SM CLR 16/13 A3012 A02 6212
METAR KMWO 170756Z AUTO 00000KT 4SM BR CLR 16/13 A3013 A02 6211
METAR KMWO 170656Z AUTO 00000KT 4SM BR CLR 16/13 A3014 A02 6210
METAR KMWO 170556Z AUTO 00000KT 5SM BR CLR 16/13 A3015 A02 6209
METAR KMWO 170456Z AUTO 00000KT 2SM BR CLR 16/14 A3015 A02 6208
METAR KMWO 170356Z AUTO 00000KT 7SM CLR 17/14 A3016 A02 6207
METAR KMWO 170256Z AUTO 00000KT 7SM CLR 17/14 A3014 A02 6206
METAR KMWO 170156Z AUTO 00000KT 10SM CLR 18/14 A3013 A02 6205
METAR KMWO 170056Z AUTO 00000KT 10SM CLR 21/17 A3012 A02 6204
METAR KMWO 162356Z AUTO 00000KT 10SM CLR 21/16 A3012 A02 6203
METAR KMWO 162256Z AUTO 12005KT 10SM CLR 27/13 A3013 A02 6202
METAR KMWO 162156Z AUTO 10003KT 10SM CLR 28/13 A3013 A02 6201
METAR KMWO 162056Z AUTO 00000KT 10SM CLR 28/13 A3014 A02 6200
METAR KMWO 161956Z AUTO 05003KT 10SM SCT050 27/14 A3015 A02 6199
METAR KMWO 161856Z AUTO 00000KT 10SM BKN047 BKN060 27/16 A3016 A02 6198
METAR KMWO 161756Z AUTO 00000KT 10SM -RA CLR 27/17 A3018 A02 6197
METAR KMWO 161656Z AUTO 00000KT 10SM -RA CLR 25/17 A3020 A02 6196
METAR KMWO 161556Z AUTO 17004KT 10SM CLR 25/18 A3020 A02 6195
METAR KMWO 161456Z AUTO 00000KT 10SM CLR 24/19 A3020 A02 6194
METAR KMWO 161356Z AUTO 00000KT 10SM CLR 21/18 A3019 A02 6193
METAR KMWO 161256Z AUTO 05003KT 7SM CLR 17/14 A3019 A02 6192
METAR KMWO 161156Z AUTO 00000KT 3SM BR CLR 14/12 A3019 A02 6191
METAR KMWO 161056Z AUTO 00000KT 2 1/2SM BR CLR 14/12 A3017 A02 6190
METAR KMWO 160956Z AUTO 00000KT 3SM BR CLR 16/13 A3016 A02 6189
METAR KMWO 160856Z AUTO 00000KT 3SM BR CLR 16/13 A3016 A02 6188
METAR KMWO 160756Z AUTO 00000KT 4SM BR CLR 16/13 A3015 A02 6187
METAR KMWO 160656Z AUTO 00000KT 4SM BR CLR 16/13 A3015 A02 6186
METAR KMWO 160556Z AUTO 00000KT 3SM BR CLR 16/13 A3015 A02 6185
METAR KMWO 160456Z AUTO 00000KT 5SM BR CLR 16/14 A3015 A02 6184
METAR KMWO 160356Z AUTO 00000KT 4SM BR CLR 17/14 A3015 A02 6183
METAR KMWO 160256Z AUTO 00000KT 5SM BR CLR 17/14 A3013 A02 6182
METAR KMWO 160156Z AUTO 00000KT 10SM CLR 18/16 A3012 A02 6181
METAR KMWO 160056Z AUTO 00000KT 10SM CLR 21/18 A3011 A02 6180
METAR KMWO 152356Z AUTO 07003KT 10SM SCT070 24/18 A3010 A02 6179
METAR KMWO 152256Z AUTO 08005KT 10SM OVC060 25/17 A3010 A02 6178
METAR KMWO 152156Z AUTO 12006KT 10SM OVC060 27/18 A3010 A02 6177
METAR KMWO 152056Z AUTO 11004KT 10SM SCT045 OVC060 25/16 A3009 A02 6176
METAR KMWO 151956Z AUTO 00000KT 10SM CLR 25/14 A3009 A02 6175
METAR KMWO 151856Z AUTO 21006KT 10SM SCT042 SCT050 27/18 A3009 A02 6174
METAR KMWO 151756Z AUTO 00000KT 10SM SCT041 SCT060 25/17 A3011 A02 6173
METAR KMWO 151656Z AUTO 26003KT 10SM SCT029 SCT037 SCT046 24/18 A3013 A02 6172
METAR KMWO 151556Z AUTO 00000KT 10SM CLR 24/19 A3013 A02 6171
METAR KMWO 151456Z AUTO 00000KT 7SM CLR 19/17 A3015 A02 6170
METAR KMWO 151356Z AUTO 00000KT 1/4SM FG OVC001 16/14 A3015 A02 6169
METAR KMWO 151256Z AUTO 00000KT 1/4SM FG OVC001 16/13 A3013 A02 6168